createdAt,value
2018-05-23T00:06:01.329Z,11.9
2018-05-23T00:22:01.428Z,11.9
2018-05-23T00:27:01.373Z,11.8
2018-05-23T00:37:01.317Z,11.7
2018-05-23T00:42:01.267Z,11.6
2018-05-23T00:57:01.296Z,11.6
2018-05-23T01:02:01.268Z,11.7
2018-05-23T01:17:01.318Z,11.6
2018-05-23T01:22:01.274Z,11.5
2018-05-23T01:32:01.323Z,11.4
2018-05-23T01:37:01.333Z,11.3
2018-05-23T01:47:01.276Z,11.2
2018-05-23T02:02:01.231Z,11.1
2018-05-23T02:17:01.304Z,11.1
2018-05-23T02:27:01.237Z,11.0
2018-05-23T02:37:01.211Z,10.9
2018-05-23T02:47:01.469Z,10.8
2018-05-23T03:02:01.252Z,10.8
2018-05-23T03:07:01.252Z,10.7
2018-05-23T03:22:01.453Z,10.7
2018-05-23T03:37:01.185Z,10.8
2018-05-23T03:47:01.267Z,10.7
2018-05-23T03:52:01.324Z,10.8
2018-05-23T03:57:01.261Z,10.7
2018-05-23T04:02:01.271Z,10.8
2018-05-23T04:07:01.286Z,10.9
2018-05-23T04:12:01.243Z,11.1
2018-05-23T04:17:01.266Z,11.2
2018-05-23T04:23:01.225Z,11.5
2018-05-23T04:28:01.251Z,11.6
2018-05-23T04:33:01.312Z,11.8
2018-05-23T04:38:01.289Z,11.9
2018-05-23T04:43:01.327Z,12.2
2018-05-23T04:48:01.295Z,12.3
2018-05-23T04:53:01.301Z,12.7
2018-05-23T04:58:01.302Z,13.0
2018-05-23T05:03:01.262Z,13.4
2018-05-23T05:08:01.159Z,13.8
2018-05-23T05:13:01.295Z,14.3
2018-05-23T05:18:01.310Z,14.6
2018-05-23T05:23:01.297Z,15.0
2018-05-23T05:28:01.357Z,15.2
2018-05-23T05:33:01.304Z,15.5
2018-05-23T05:38:01.359Z,15.7
2018-05-23T05:43:01.362Z,16.0
2018-05-23T05:48:01.298Z,16.2
2018-05-23T05:53:01.386Z,16.4
2018-05-23T05:58:01.366Z,16.6
2018-05-23T06:03:01.305Z,16.8
2018-05-23T06:09:01.414Z,16.9
2018-05-23T06:14:01.432Z,17.0
2018-05-23T06:19:01.267Z,17.2
2018-05-23T06:24:01.401Z,17.3
2018-05-23T06:34:01.268Z,17.4
2018-05-23T06:49:01.120Z,17.5
2018-05-23T06:54:01.407Z,17.7
2018-05-23T06:59:01.456Z,17.8
2018-05-23T07:04:01.342Z,18.1
2018-05-23T07:09:01.301Z,18.3
2018-05-23T07:14:01.439Z,18.6
2018-05-23T07:19:01.295Z,18.7
2018-05-23T07:24:01.516Z,19.0
2018-05-23T07:29:01.258Z,19.2
2018-05-23T07:34:01.699Z,19.4
2018-05-23T07:39:01.290Z,19.5
2018-05-23T07:44:01.326Z,19.7
2018-05-23T07:49:01.379Z,19.9
2018-05-23T07:54:01.485Z,20.1
2018-05-23T07:59:01.322Z,20.3
2018-05-23T08:04:01.353Z,20.5
2018-05-23T08:09:01.316Z,20.6
2018-05-23T08:14:01.323Z,20.7
2018-05-23T08:19:01.381Z,20.8
2018-05-23T08:24:01.431Z,21.0
2018-05-23T08:29:01.309Z,21.2
2018-05-23T08:34:01.349Z,21.3
2018-05-23T08:39:01.303Z,21.4
2018-05-23T08:44:01.358Z,21.6
2018-05-23T08:54:01.391Z,21.8
2018-05-23T08:59:01.303Z,21.9
2018-05-23T09:04:01.363Z,22.1
2018-05-23T09:09:01.352Z,22.2
2018-05-23T09:15:01.501Z,22.3
2018-05-23T09:20:01.333Z,22.4
2018-05-23T09:25:01.314Z,22.5
2018-05-23T09:30:01.485Z,22.5
2018-05-23T09:35:01.387Z,22.7
2018-05-23T09:45:01.597Z,22.9
2018-05-23T09:50:01.276Z,23.0
2018-05-23T09:55:01.464Z,23.2
2018-05-23T10:00:01.412Z,23.3
2018-05-23T10:05:01.393Z,23.5
2018-05-23T10:10:01.294Z,23.6
2018-05-23T10:15:01.531Z,23.7
2018-05-23T10:20:06.242Z,23.8
2018-05-23T10:25:01.320Z,23.9
2018-05-23T10:30:01.451Z,23.9
2018-05-23T10:35:01.345Z,24.0
2018-05-23T10:45:01.459Z,24.0
2018-05-23T11:00:01.479Z,24.1
2018-05-23T11:05:01.329Z,24.2
2018-05-23T11:10:01.514Z,24.3
2018-05-23T11:15:01.665Z,24.5
2018-05-23T11:21:01.224Z,24.6
2018-05-23T11:26:01.377Z,24.7
2018-05-23T11:31:01.256Z,24.8
2018-05-23T11:46:01.110Z,24.7
2018-05-23T11:51:01.261Z,24.6
2018-05-23T12:01:01.128Z,24.5
2018-05-23T12:16:01.124Z,24.6
2018-05-23T12:21:01.299Z,24.8
2018-05-23T12:26:01.316Z,25.0
2018-05-23T12:41:01.392Z,25.1
2018-05-23T12:46:01.278Z,25.2
2018-05-23T12:51:01.319Z,25.4
2018-05-23T12:56:01.525Z,25.6
2018-05-23T13:01:01.360Z,25.7
2018-05-23T13:11:01.474Z,25.5
2018-05-23T13:26:01.539Z,25.4
2018-05-23T13:31:01.225Z,25.5
2018-05-23T13:36:01.361Z,25.6
2018-05-23T13:51:01.270Z,25.6
2018-05-23T14:01:01.117Z,25.7
2018-05-23T14:06:16.130Z,25.8
2018-05-23T14:16:16.143Z,25.7
2018-05-23T14:22:16.127Z,25.8
2018-05-23T14:37:01.384Z,25.8
2018-05-23T14:47:01.096Z,25.7
2018-05-23T15:02:01.120Z,25.6
2018-05-23T15:18:01.112Z,25.6
2018-05-23T15:33:01.121Z,25.6
2018-05-23T15:48:01.137Z,25.5
2018-05-23T15:53:01.302Z,25.4
2018-05-23T15:58:01.371Z,25.3
2018-05-23T16:03:01.379Z,25.1
2018-05-23T16:08:01.295Z,24.9
2018-05-23T16:13:16.180Z,24.5
2018-05-23T16:18:01.220Z,24.1
2018-05-23T16:23:01.277Z,23.6
2018-05-23T16:29:01.104Z,23.3
2018-05-23T16:34:01.237Z,23.0
2018-05-23T16:39:01.251Z,22.9
2018-05-23T16:44:01.248Z,22.8
2018-05-23T16:54:01.292Z,22.7
2018-05-23T17:04:01.219Z,22.6
2018-05-23T17:09:01.245Z,22.5
2018-05-23T17:19:01.268Z,22.4
2018-05-23T17:29:01.226Z,22.3
2018-05-23T17:39:01.249Z,22.2
2018-05-23T17:54:01.248Z,22.1
2018-05-23T18:04:01.256Z,22.0
2018-05-23T18:09:01.244Z,21.9
2018-05-23T18:14:01.235Z,21.7
2018-05-23T18:19:01.256Z,21.6
2018-05-23T18:24:01.300Z,21.5
2018-05-23T18:29:01.260Z,21.4
2018-05-23T18:34:01.256Z,21.2
2018-05-23T18:39:01.245Z,21.1
2018-05-23T18:44:01.303Z,20.9
2018-05-23T18:49:01.253Z,20.8
2018-05-23T18:54:01.243Z,20.5
2018-05-23T18:59:01.305Z,20.3
2018-05-23T19:04:01.266Z,20.1
2018-05-23T19:09:01.297Z,19.9
2018-05-23T19:14:01.299Z,19.6
2018-05-23T19:19:01.306Z,19.4
2018-05-23T19:24:01.288Z,19.1
2018-05-23T19:29:01.316Z,18.9
2018-05-23T19:34:01.306Z,18.6
2018-05-23T19:39:01.361Z,18.4
2018-05-23T19:44:01.292Z,18.1
2018-05-23T19:50:01.293Z,17.9
2018-05-23T19:55:01.262Z,17.6
2018-05-23T20:00:01.313Z,17.4
2018-05-23T20:05:01.269Z,17.3
2018-05-23T20:10:01.288Z,17.1
2018-05-23T20:15:01.315Z,17.0
2018-05-23T20:20:01.313Z,16.8
2018-05-23T20:25:01.311Z,16.7
2018-05-23T20:30:01.328Z,16.6
2018-05-23T20:35:01.299Z,16.4
2018-05-23T20:45:01.291Z,16.5
2018-05-23T20:55:01.250Z,16.6
2018-05-23T21:00:01.324Z,16.7
2018-05-23T21:05:06.607Z,16.8
2018-05-23T21:15:01.409Z,16.9
2018-05-23T21:25:01.341Z,16.8
2018-05-23T21:30:01.321Z,16.8
2018-05-23T21:35:01.317Z,16.7
2018-05-23T21:40:01.312Z,16.6
2018-05-23T21:45:01.353Z,16.5
2018-05-23T21:50:01.317Z,16.4
2018-05-23T21:55:01.319Z,16.2
2018-05-23T22:00:06.326Z,16.1
2018-05-23T22:05:01.364Z,15.9
2018-05-23T22:10:01.332Z,15.7
2018-05-23T22:15:01.391Z,15.5
2018-05-23T22:20:01.275Z,15.3
2018-05-23T22:25:01.384Z,15.1
2018-05-23T22:30:01.256Z,15.0
2018-05-23T22:35:01.376Z,14.9
2018-05-23T22:45:01.356Z,14.9
2018-05-23T22:55:01.364Z,15.0
2018-05-23T23:00:01.264Z,15.1
2018-05-23T23:05:01.396Z,15.2
2018-05-23T23:10:01.387Z,15.3
2018-05-23T23:15:01.349Z,15.3
2018-05-23T23:20:01.242Z,15.4
2018-05-23T23:30:06.378Z,15.4
2018-05-23T23:35:01.369Z,15.3
2018-05-23T23:45:01.407Z,15.2
2018-05-23T23:55:01.461Z,15.1
